createdAt,value
2019-03-31T00:02:03.050Z,48.02
2019-03-31T00:06:06.614Z,48.83
2019-03-31T00:10:10.327Z,46.58
2019-03-31T00:14:13.995Z,42.35
2019-03-31T00:18:17.659Z,40.43
2019-03-31T00:22:21.276Z,38.30
2019-03-31T00:26:25.003Z,39.38
2019-03-31T00:30:28.805Z,39.30
2019-03-31T00:34:32.423Z,40.03
2019-03-31T00:38:36.051Z,40.58
2019-03-31T00:42:39.648Z,38.70
2019-03-31T00:46:43.362Z,38.80
2019-03-31T00:50:47.084Z,37.45
2019-03-31T00:54:50.903Z,41.15
2019-03-31T00:58:54.489Z,39.75
2019-03-31T01:02:59.257Z,39.90
2019-03-31T01:07:03.086Z,40.78
2019-03-31T01:11:09.768Z,42.78
2019-03-31T01:15:15.996Z,40.65
2019-03-31T01:19:20.166Z,41.30
2019-03-31T01:23:23.780Z,43.40
2019-03-31T01:27:27.802Z,44.33
2019-03-31T01:31:31.567Z,41.65
2019-03-31T01:35:35.747Z,41.63
2019-03-31T01:39:39.363Z,42.62
2019-03-31T01:43:43.076Z,41.48
2019-03-31T01:47:46.793Z,40.80
2019-03-31T01:51:50.433Z,42.55
2019-03-31T01:55:54.224Z,43.00
2019-03-31T01:59:57.960Z,44.15
2019-03-31T02:04:01.582Z,43.23
2019-03-31T02:08:06.505Z,46.98
2019-03-31T02:12:10.114Z,45.05
2019-03-31T02:16:13.829Z,47.93
2019-03-31T02:20:17.562Z,46.58
2019-03-31T02:24:21.161Z,43.20
2019-03-31T02:28:24.703Z,45.07
2019-03-31T02:32:28.390Z,45.95
2019-03-31T02:36:32.007Z,48.98
2019-03-31T02:40:35.821Z,48.23
2019-03-31T02:44:39.436Z,46.98
2019-03-31T02:48:43.048Z,52.90
2019-03-31T02:52:46.662Z,50.80
2019-03-31T02:56:50.972Z,48.40
2019-03-31T03:00:54.913Z,47.85
2019-03-31T03:05:17.859Z,49.60
2019-03-31T03:09:07.160Z,47.03
2019-03-31T03:13:12.413Z,45.12
2019-03-31T03:17:16.125Z,45.08
2019-03-31T03:21:23.673Z,45.08
2019-03-31T03:25:25.303Z,43.80
2019-03-31T03:29:28.856Z,43.30
2019-03-31T03:33:32.426Z,41.70
2019-03-31T03:37:36.041Z,42.15
2019-03-31T03:41:39.654Z,40.98
2019-03-31T03:45:43.369Z,40.70
2019-03-31T03:49:46.982Z,37.42
2019-03-31T03:53:50.602Z,36.88
2019-03-31T03:57:54.212Z,37.25
2019-03-31T04:01:57.823Z,36.00
2019-03-31T04:06:01.540Z,36.90
2019-03-31T04:10:08.226Z,36.33
2019-03-31T04:14:11.849Z,36.93
2019-03-31T04:18:15.452Z,33.05
2019-03-31T04:22:19.069Z,30.57
2019-03-31T04:26:22.784Z,29.12
2019-03-31T04:30:26.400Z,28.77
2019-03-31T04:34:29.951Z,29.42
2019-03-31T04:38:33.631Z,28.57
2019-03-31T04:42:37.243Z,26.12
2019-03-31T04:46:40.835Z,26.93
2019-03-31T04:50:44.776Z,25.82
2019-03-31T04:54:48.394Z,24.65
2019-03-31T04:58:52.004Z,25.27
2019-03-31T05:02:55.558Z,21.62
2019-03-31T05:07:00.258Z,22.82
2019-03-31T05:11:04.454Z,20.82
2019-03-31T05:15:08.200Z,19.80
2019-03-31T05:19:11.813Z,19.17
2019-03-31T05:23:15.430Z,18.73
2019-03-31T05:27:19.042Z,18.48
2019-03-31T05:31:22.655Z,20.17
2019-03-31T05:35:27.187Z,22.93
2019-03-31T05:39:30.908Z,23.57
2019-03-31T05:43:34.625Z,19.90
2019-03-31T05:47:38.237Z,15.98
2019-03-31T05:51:41.952Z,16.65
2019-03-31T05:55:45.671Z,15.13
2019-03-31T05:59:49.280Z,17.45
2019-03-31T06:03:53.024Z,14.23
2019-03-31T06:07:56.613Z,13.48
2019-03-31T06:12:00.336Z,13.22
2019-03-31T06:16:04.045Z,12.10
2019-03-31T06:20:07.686Z,12.82
2019-03-31T06:24:11.235Z,14.10
2019-03-31T06:28:14.885Z,11.87
2019-03-31T06:32:18.500Z,11.87
2019-03-31T06:36:22.118Z,10.50
2019-03-31T06:40:25.658Z,9.53
2019-03-31T06:44:29.244Z,8.50
2019-03-31T06:48:32.851Z,8.08
2019-03-31T06:52:36.467Z,8.13
2019-03-31T06:56:40.086Z,5.62
2019-03-31T07:00:43.638Z,8.35
2019-03-31T07:05:00.268Z,3.83
2019-03-31T07:08:52.768Z,4.47
2019-03-31T07:12:59.631Z,2.22
2019-03-31T07:17:01.735Z,2.50
2019-03-31T07:21:05.272Z,1.72
2019-03-31T07:25:10.683Z,2.00
2019-03-31T07:29:14.319Z,2.72
2019-03-31T07:33:17.932Z,2.67
2019-03-31T07:37:21.544Z,2.00
2019-03-31T07:41:25.476Z,1.92
2019-03-31T07:45:29.181Z,2.98
2019-03-31T07:49:32.899Z,1.82
2019-03-31T07:53:36.511Z,2.62
2019-03-31T07:57:40.234Z,2.25
2019-03-31T08:01:43.833Z,2.70
2019-03-31T08:05:47.392Z,2.25
2019-03-31T08:09:50.965Z,2.60
2019-03-31T08:13:55.445Z,1.85
2019-03-31T08:17:59.628Z,2.20
2019-03-31T08:22:03.251Z,2.20
2019-03-31T08:26:06.854Z,1.98
2019-03-31T08:30:13.158Z,2.25
2019-03-31T08:34:16.720Z,2.30
2019-03-31T08:38:20.367Z,2.50
2019-03-31T08:42:24.026Z,2.65
2019-03-31T08:46:27.630Z,2.35
2019-03-31T08:50:33.288Z,3.70
2019-03-31T08:54:36.692Z,2.77
2019-03-31T08:58:40.278Z,2.25
2019-03-31T09:02:43.841Z,3.22
2019-03-31T09:06:47.406Z,2.72
2019-03-31T09:10:51.113Z,3.15
2019-03-31T09:14:54.727Z,2.30
2019-03-31T09:18:58.442Z,2.52
2019-03-31T09:23:02.080Z,2.95
2019-03-31T09:27:05.776Z,2.12
2019-03-31T09:31:09.494Z,3.62
2019-03-31T09:35:16.379Z,2.98
2019-03-31T09:39:19.919Z,2.30
2019-03-31T09:43:23.507Z,2.05
2019-03-31T09:47:27.223Z,2.50
2019-03-31T09:51:30.768Z,2.83
2019-03-31T09:55:34.556Z,2.27
2019-03-31T09:59:38.172Z,2.75
2019-03-31T10:03:41.826Z,2.05
2019-03-31T10:07:46.649Z,2.10
2019-03-31T10:11:50.359Z,2.52
2019-03-31T10:15:54.038Z,2.35
2019-03-31T10:19:57.668Z,2.80
2019-03-31T10:24:01.505Z,2.75
2019-03-31T10:28:05.145Z,2.08
2019-03-31T10:32:08.985Z,1.60
2019-03-31T10:36:12.955Z,2.02
2019-03-31T10:40:16.869Z,2.50
2019-03-31T10:44:20.482Z,2.00
2019-03-31T10:48:25.740Z,1.60
2019-03-31T10:52:29.351Z,1.90
2019-03-31T10:56:33.070Z,1.80
2019-03-31T11:00:38.175Z,2.45
2019-03-31T11:04:41.834Z,1.57
2019-03-31T11:08:45.445Z,1.30
2019-03-31T11:12:50.813Z,0.98
2019-03-31T11:16:54.614Z,1.40
2019-03-31T11:20:59.975Z,1.37
2019-03-31T11:25:03.893Z,1.42
2019-03-31T11:29:07.608Z,1.47
2019-03-31T11:33:11.460Z,1.55
2019-03-31T11:37:15.277Z,1.45
2019-03-31T11:41:19.696Z,1.55
2019-03-31T11:45:23.609Z,2.27
2019-03-31T11:49:27.439Z,1.35
2019-03-31T11:53:31.361Z,1.62
2019-03-31T11:57:34.957Z,1.55
2019-03-31T12:01:38.575Z,1.10
2019-03-31T12:05:42.297Z,1.20
2019-03-31T12:09:45.898Z,1.52
2019-03-31T12:13:49.517Z,1.50
2019-03-31T12:17:53.332Z,1.45
2019-03-31T12:21:57.918Z,0.82
2019-03-31T12:26:01.484Z,0.75
2019-03-31T12:30:08.270Z,1.00
2019-03-31T12:34:11.881Z,1.37
2019-03-31T12:38:15.429Z,0.88
2019-03-31T12:42:19.114Z,1.60
2019-03-31T12:46:22.940Z,1.55
2019-03-31T12:50:26.544Z,1.82
2019-03-31T12:54:30.367Z,1.00
2019-03-31T12:58:34.182Z,1.62
2019-03-31T13:02:37.898Z,1.45
2019-03-31T13:06:41.718Z,1.17
2019-03-31T13:10:45.331Z,1.42
2019-03-31T13:14:49.056Z,1.55
2019-03-31T13:18:53.174Z,2.22
2019-03-31T13:22:56.891Z,1.50
2019-03-31T13:27:00.473Z,1.00
2019-03-31T13:31:04.008Z,1.17
2019-03-31T13:35:08.640Z,2.08
2019-03-31T13:39:12.580Z,0.90
2019-03-31T13:43:16.191Z,1.40
2019-03-31T13:47:19.906Z,1.30
2019-03-31T13:51:24.681Z,0.90
2019-03-31T13:55:28.482Z,2.40
2019-03-31T13:59:32.080Z,1.67
2019-03-31T14:03:35.639Z,1.32
2019-03-31T14:07:39.311Z,1.70
2019-03-31T14:11:43.055Z,1.45
2019-03-31T14:15:46.639Z,1.40
2019-03-31T14:19:50.256Z,1.85
2019-03-31T14:23:53.824Z,1.37
2019-03-31T14:27:57.486Z,1.98
2019-03-31T14:32:01.209Z,2.80
2019-03-31T14:36:04.816Z,2.23
2019-03-31T14:40:08.505Z,1.77
2019-03-31T14:44:12.249Z,1.67
2019-03-31T14:48:15.885Z,1.53
2019-03-31T14:52:27.190Z,1.67
2019-03-31T14:56:24.973Z,1.70
2019-03-31T15:00:28.692Z,2.10
2019-03-31T15:04:32.368Z,1.70
2019-03-31T15:08:36.080Z,2.02
2019-03-31T15:12:40.642Z,1.70
2019-03-31T15:16:44.391Z,2.27
2019-03-31T15:20:48.492Z,2.15
2019-03-31T15:24:52.071Z,2.02
2019-03-31T15:28:56.113Z,1.52
2019-03-31T15:32:59.657Z,1.85
2019-03-31T15:37:03.330Z,2.10
2019-03-31T15:41:20.347Z,1.98
2019-03-31T15:45:12.606Z,2.20
2019-03-31T15:49:16.192Z,2.08
2019-03-31T15:53:20.037Z,1.72
2019-03-31T15:57:23.812Z,2.00
2019-03-31T16:01:28.326Z,2.65
2019-03-31T16:05:32.259Z,2.20
2019-03-31T16:09:35.825Z,1.87
2019-03-31T16:13:39.396Z,1.70
2019-03-31T16:17:43.001Z,1.60
2019-03-31T16:21:48.032Z,2.17
2019-03-31T16:25:53.353Z,2.05
2019-03-31T16:29:56.966Z,2.02
2019-03-31T16:34:00.543Z,2.22
2019-03-31T16:38:04.299Z,2.00
2019-03-31T16:42:07.909Z,2.00
2019-03-31T16:46:13.571Z,3.05
2019-03-31T16:50:17.288Z,1.85
2019-03-31T16:54:20.904Z,2.15
2019-03-31T16:58:24.517Z,3.47
2019-03-31T17:02:28.128Z,2.17
2019-03-31T17:06:31.844Z,1.62
2019-03-31T17:10:35.461Z,1.80
2019-03-31T17:14:39.078Z,1.90
2019-03-31T17:18:42.691Z,2.15
2019-03-31T17:22:46.759Z,2.05
2019-03-31T17:26:50.530Z,2.47
2019-03-31T17:30:54.145Z,2.30
2019-03-31T17:34:57.721Z,2.20
2019-03-31T17:39:01.374Z,2.17
2019-03-31T17:43:04.987Z,2.60
2019-03-31T17:47:08.597Z,1.98
2019-03-31T17:51:12.214Z,2.08
2019-03-31T17:55:16.760Z,2.37
2019-03-31T17:59:21.814Z,1.57
2019-03-31T18:03:25.411Z,2.15
2019-03-31T18:07:29.029Z,1.98
2019-03-31T18:11:32.642Z,1.85
2019-03-31T18:15:36.256Z,2.17
2019-03-31T18:19:39.826Z,2.47
2019-03-31T18:23:43.349Z,1.67
2019-03-31T18:27:47.205Z,2.17
2019-03-31T18:31:51.017Z,1.87
2019-03-31T18:35:55.895Z,2.85
2019-03-31T18:40:00.037Z,1.75
2019-03-31T18:44:04.549Z,2.50
2019-03-31T18:48:08.843Z,2.58
2019-03-31T18:52:12.839Z,1.62
2019-03-31T18:56:34.407Z,1.50
2019-03-31T19:00:45.609Z,1.92
2019-03-31T19:04:53.656Z,2.33
2019-03-31T19:08:59.180Z,1.80
2019-03-31T19:13:20.984Z,1.80
2019-03-31T19:22:00.490Z,2.52
2019-03-31T19:26:21.441Z,2.75
2019-03-31T19:30:36.349Z,1.73
2019-03-31T19:34:51.097Z,2.40
2019-03-31T19:38:56.479Z,2.20
2019-03-31T19:43:17.289Z,2.20
2019-03-31T19:47:23.022Z,2.00
2019-03-31T19:51:29.094Z,3.22
2019-03-31T19:55:51.388Z,4.10
2019-03-31T19:59:57.259Z,3.02
2019-03-31T20:04:20.026Z,4.67
2019-03-31T20:08:43.885Z,2.00
2019-03-31T20:12:55.258Z,2.08
2019-03-31T20:17:00.831Z,2.10
2019-03-31T20:21:12.044Z,1.98
2019-03-31T20:25:20.501Z,1.32
2019-03-31T20:29:28.804Z,1.55
2019-03-31T20:33:36.997Z,1.30
2019-03-31T20:37:45.723Z,1.37
2019-03-31T20:41:59.878Z,2.58
2019-03-31T20:46:04.629Z,2.42
2019-03-31T20:50:08.628Z,1.80
2019-03-31T20:54:12.170Z,1.70
2019-03-31T20:58:15.972Z,1.22
2019-03-31T21:02:19.808Z,0.85
2019-03-31T21:06:23.711Z,1.52
2019-03-31T21:10:27.445Z,1.17
2019-03-31T21:14:31.137Z,1.52
2019-03-31T21:18:34.867Z,1.65
2019-03-31T21:22:38.514Z,1.47
2019-03-31T21:26:42.190Z,1.48
2019-03-31T21:30:46.825Z,0.78
2019-03-31T21:34:50.433Z,1.40
2019-03-31T21:38:54.055Z,1.45
2019-03-31T21:42:57.622Z,1.27
2019-03-31T21:47:01.175Z,1.32
2019-03-31T21:51:04.895Z,1.20
2019-03-31T21:55:09.731Z,0.60
2019-03-31T21:59:13.344Z,1.40
2019-03-31T22:03:16.973Z,1.30
2019-03-31T22:07:20.582Z,1.10
2019-03-31T22:11:24.187Z,1.35
2019-03-31T22:15:27.734Z,1.25
2019-03-31T22:19:31.413Z,1.72
2019-03-31T22:23:36.804Z,2.02
2019-03-31T22:27:40.383Z,1.65
2019-03-31T22:31:43.999Z,0.90
2019-03-31T22:36:06.244Z,1.12
2019-03-31T22:40:10.044Z,1.10
2019-03-31T22:44:13.678Z,1.00
2019-03-31T22:48:17.401Z,0.80
2019-03-31T22:52:21.008Z,0.95
2019-03-31T22:56:24.624Z,1.70
2019-03-31T23:00:28.339Z,0.72
2019-03-31T23:04:31.957Z,1.15
2019-03-31T23:08:35.509Z,1.02
2019-03-31T23:12:40.106Z,1.02
2019-03-31T23:16:43.923Z,3.33
2019-03-31T23:20:47.531Z,1.12
2019-03-31T23:24:51.146Z,1.02
2019-03-31T23:28:54.764Z,1.27
2019-03-31T23:32:58.376Z,1.12
2019-03-31T23:37:01.988Z,2.95
2019-03-31T23:41:05.705Z,1.00
2019-03-31T23:45:09.420Z,1.10
2019-03-31T23:49:12.979Z,0.85
2019-03-31T23:53:16.545Z,1.02
2019-03-31T23:57:21.795Z,1.00
